createdAt,value
2022-11-16T00:04:53.552Z,5.61
2022-11-16T00:09:55.376Z,5.53
2022-11-16T00:14:57.349Z,5.45
2022-11-16T00:19:58.850Z,5.32
2022-11-16T00:25:00.466Z,5.36
2022-11-16T00:30:02.597Z,5.38
2022-11-16T00:35:04.342Z,5.38
2022-11-16T00:40:06.064Z,5.29
2022-11-16T00:45:07.753Z,5.23
2022-11-16T00:50:09.696Z,5.2
2022-11-16T00:55:11.636Z,5.18
2022-11-16T01:00:13.522Z,5.14
2022-11-16T01:05:14.680Z,5.09
2022-11-16T01:10:16.693Z,5.07
2022-11-16T01:15:18.893Z,4.96
2022-11-16T01:20:20.817Z,4.92
2022-11-16T01:25:22.960Z,4.92
2022-11-16T01:30:24.606Z,4.87
2022-11-16T01:35:26.681Z,4.84
2022-11-16T01:40:28.784Z,4.58
2022-11-16T01:45:30.856Z,4.48
2022-11-16T01:50:32.313Z,4.38
2022-11-16T01:55:33.641Z,4.38
2022-11-16T02:00:35.047Z,4.36
2022-11-16T02:05:37.143Z,4.38
2022-11-16T02:10:38.430Z,4.33
2022-11-16T02:15:40.156Z,4.33
2022-11-16T02:20:41.776Z,4.36
2022-11-16T02:25:43.318Z,4.36
2022-11-16T02:30:45.278Z,4.41
2022-11-16T02:35:46.966Z,4.48
2022-11-16T02:40:48.325Z,4.54
2022-11-16T02:45:49.741Z,4.6
2022-11-16T02:50:51.332Z,4.67
2022-11-16T02:55:53.171Z,4.73
2022-11-16T03:00:54.707Z,4.75
2022-11-16T03:21:07.375Z,4.55
2022-11-16T03:31:10.143Z,4.69
2022-11-16T03:41:13.087Z,4.81
2022-11-16T03:51:16.480Z,4.96
2022-11-16T04:01:20.399Z,5.03
2022-11-16T04:11:23.839Z,5.16
2022-11-16T04:16:25.918Z,5.21
2022-11-16T04:36:33.050Z,5.47
2022-11-16T04:41:34.903Z,5.54
2022-11-16T04:46:36.255Z,5.6
2022-11-16T04:51:38.176Z,5.6
2022-11-16T04:56:40.142Z,5.63
2022-11-16T05:01:41.875Z,5.68
2022-11-16T05:06:42.946Z,5.72
2022-11-16T05:11:45.041Z,5.74
2022-11-16T05:16:46.419Z,5.78
2022-11-16T05:21:47.664Z,5.83
2022-11-16T05:26:48.932Z,5.83
2022-11-16T05:31:50.844Z,5.86
2022-11-16T05:36:52.226Z,5.91
2022-11-16T05:41:53.560Z,5.96
2022-11-16T05:46:54.812Z,5.97
2022-11-16T05:51:56.455Z,6.01
2022-11-16T05:56:58.520Z,6.03
2022-11-16T06:02:00.170Z,6.02
2022-11-16T06:07:02.121Z,5.99
2022-11-16T06:12:04.223Z,5.98
2022-11-16T06:17:06.335Z,5.98
2022-11-16T06:22:07.767Z,5.99
2022-11-16T06:27:09.767Z,6
2022-11-16T06:32:11.229Z,5.83
2022-11-16T06:37:13.126Z,5.78
2022-11-16T06:42:15.226Z,5.65
2022-11-16T06:47:17.039Z,5.46
2022-11-16T06:52:19.008Z,5.4
2022-11-16T06:57:20.448Z,5.34
2022-11-16T07:02:21.891Z,5.35
2022-11-16T07:07:23.862Z,5.4
2022-11-16T07:12:25.341Z,5.51
2022-11-16T07:17:26.966Z,5.57
2022-11-16T07:22:28.728Z,5.65
2022-11-16T07:27:30.701Z,5.72
2022-11-16T07:32:31.949Z,5.8
2022-11-16T07:37:33.474Z,5.84
2022-11-16T07:42:34.670Z,5.93
2022-11-16T07:47:36.083Z,6.04
2022-11-16T07:52:37.652Z,6.11
2022-11-16T07:57:39.561Z,6.22
2022-11-16T08:02:41.662Z,6.37
2022-11-16T08:07:43.587Z,6.53
2022-11-16T08:12:45.480Z,6.61
2022-11-16T08:17:47.677Z,6.77
2022-11-16T08:22:49.745Z,6.9
2022-11-16T08:27:51.366Z,7
2022-11-16T08:32:53.361Z,7.08
2022-11-16T08:37:55.140Z,7.16
2022-11-16T08:42:56.951Z,7.23
2022-11-16T08:48:03.898Z,7.31
2022-11-16T08:53:00.064Z,7.43
2022-11-16T08:58:02.235Z,7.53
2022-11-16T09:03:04.301Z,7.66
2022-11-16T09:08:05.493Z,7.76
2022-11-16T09:13:07.543Z,7.86
2022-11-16T09:18:08.959Z,7.99
2022-11-16T09:23:10.670Z,8.08
2022-11-16T09:28:11.842Z,8.18
2022-11-16T09:33:13.824Z,8.31
2022-11-16T09:38:22.034Z,8.43
2022-11-16T09:43:17.039Z,8.57
2022-11-16T09:48:19.325Z,8.72
2022-11-16T09:53:20.423Z,8.84
2022-11-16T09:58:21.660Z,8.92
2022-11-16T10:03:23.360Z,9.02
2022-11-16T10:08:24.719Z,9.14
2022-11-16T10:13:26.591Z,9.27
2022-11-16T10:18:28.161Z,9.39
2022-11-16T10:23:30.462Z,9.53
2022-11-16T10:28:31.890Z,9.68
2022-11-16T10:33:33.870Z,9.8
2022-11-16T10:38:34.710Z,9.93
2022-11-16T10:43:36.935Z,10.09
2022-11-16T10:48:38.070Z,10.2
2022-11-16T10:53:39.402Z,10.28
2022-11-16T10:58:40.733Z,10.34
2022-11-16T11:03:42.250Z,10.43
2022-11-16T11:08:43.627Z,10.52
2022-11-16T11:13:45.673Z,10.63
2022-11-16T11:18:47.788Z,10.74
2022-11-16T11:23:49.097Z,10.85
2022-11-16T11:28:51.191Z,10.98
2022-11-16T11:33:53.473Z,11.13
2022-11-16T11:38:54.797Z,11.26
2022-11-16T11:43:56.101Z,11.35
2022-11-16T11:48:57.951Z,11.43
2022-11-16T11:53:59.854Z,11.5
2022-11-16T11:59:01.912Z,11.58
2022-11-16T12:04:03.365Z,11.63
2022-11-16T12:09:05.059Z,11.74
2022-11-16T12:14:06.408Z,11.85
2022-11-16T12:19:08.653Z,11.91
2022-11-16T12:24:10.393Z,11.95
2022-11-16T12:29:11.576Z,11.97
2022-11-16T12:34:12.930Z,11.98
2022-11-16T12:39:14.610Z,11.97
2022-11-16T12:44:16.743Z,11.96
2022-11-16T12:49:18.029Z,11.96
2022-11-16T12:54:19.521Z,11.97
2022-11-16T12:59:21.104Z,11.98
2022-11-16T13:04:22.871Z,12.02
2022-11-16T13:09:24.858Z,12.05
2022-11-16T13:14:26.492Z,12.07
2022-11-16T13:19:28.382Z,12.15
2022-11-16T13:24:30.290Z,12.22
2022-11-16T13:29:32.454Z,12.24
2022-11-16T13:34:34.266Z,12.26
2022-11-16T13:39:35.958Z,12.28
2022-11-16T13:44:38.136Z,12.29
2022-11-16T13:49:39.494Z,12.28
2022-11-16T13:54:45.964Z,12.32
2022-11-16T13:59:43.452Z,12.4
2022-11-16T14:04:45.090Z,12.41
2022-11-16T14:09:46.882Z,12.42
2022-11-16T14:14:48.633Z,12.44
2022-11-16T14:19:50.960Z,12.4
2022-11-16T14:24:51.994Z,12.36
2022-11-16T14:29:53.731Z,12.32
2022-11-16T14:34:55.093Z,12.17
2022-11-16T14:39:57.165Z,12.07
2022-11-16T14:44:59.288Z,11.94
2022-11-16T14:50:01.004Z,11.81
2022-11-16T14:55:02.134Z,11.71
2022-11-16T15:00:03.955Z,11.63
2022-11-16T15:05:05.869Z,11.55
2022-11-16T15:10:07.584Z,11.48
2022-11-16T15:15:08.856Z,11.43
2022-11-16T15:20:10.342Z,11.35
2022-11-16T15:25:11.613Z,11.29
2022-11-16T15:30:13.633Z,11.22
2022-11-16T15:35:15.528Z,11.1
2022-11-16T15:40:17.345Z,10.99
2022-11-16T15:45:19.109Z,10.88
2022-11-16T15:50:20.580Z,10.75
2022-11-16T15:55:21.927Z,10.62
2022-11-16T16:00:23.040Z,10.52
2022-11-16T16:05:24.707Z,10.41
2022-11-16T16:10:26.298Z,10.27
2022-11-16T16:15:28.237Z,10.18
2022-11-16T16:20:30.319Z,10.08
2022-11-16T16:25:31.421Z,9.95
2022-11-16T16:30:32.806Z,9.84
2022-11-16T16:35:34.349Z,9.76
2022-11-16T16:40:35.851Z,9.67
2022-11-16T16:45:37.390Z,9.56
2022-11-16T16:50:38.716Z,9.47
2022-11-16T16:55:40.835Z,9.39
2022-11-16T17:00:42.940Z,9.28
2022-11-16T17:05:44.958Z,9.17
2022-11-16T17:10:46.980Z,9.1
2022-11-16T17:15:48.570Z,9.01
2022-11-16T17:20:50.550Z,8.92
2022-11-16T17:25:52.389Z,8.83
2022-11-16T17:30:53.768Z,8.76
2022-11-16T17:35:55.831Z,8.6
2022-11-16T17:40:57.364Z,8.45
2022-11-16T17:45:59.316Z,8.34
2022-11-16T17:51:00.700Z,8.12
2022-11-16T18:31:14.081Z,7.02
2022-11-16T18:36:15.978Z,6.94
2022-11-16T18:56:23.324Z,6.56
2022-11-16T19:01:24.929Z,6.47
2022-11-16T19:21:31.344Z,6.09
2022-11-16T19:26:33.001Z,6.02
2022-11-16T19:31:34.479Z,5.97
2022-11-16T19:36:35.896Z,5.9
2022-11-16T19:41:37.188Z,5.8
2022-11-16T19:46:38.746Z,5.74
2022-11-16T19:51:47.191Z,5.66
2022-11-16T19:56:53.709Z,5.54
2022-11-16T20:01:50.530Z,5.49
2022-11-16T20:06:52.268Z,5.39
2022-11-16T20:11:53.730Z,5.29
2022-11-16T20:16:54.973Z,5.16
2022-11-16T20:21:57.102Z,5.09
2022-11-16T20:26:59.384Z,5.05
2022-11-16T20:32:00.814Z,4.94
2022-11-16T20:37:03.015Z,4.86
2022-11-16T20:42:05.030Z,4.82
2022-11-16T20:47:06.448Z,4.77
2022-11-16T20:52:08.468Z,4.69
2022-11-16T20:57:10.316Z,4.61
2022-11-16T21:02:12.300Z,4.55
2022-11-16T21:07:13.878Z,4.52
2022-11-16T21:12:15.806Z,4.42
2022-11-16T21:17:17.397Z,4.37
2022-11-16T21:22:19.223Z,4.34
2022-11-16T21:27:21.069Z,4.29
2022-11-16T21:32:23.102Z,4.25
2022-11-16T21:37:25.263Z,4.21
2022-11-16T21:42:27.275Z,4.19
2022-11-16T21:47:28.631Z,4.15
2022-11-16T21:52:30.175Z,4.12
2022-11-16T21:57:32.338Z,4.12
2022-11-16T22:02:34.302Z,4.07
2022-11-16T22:07:35.854Z,4.01
2022-11-16T22:12:37.268Z,3.95
2022-11-16T22:17:38.395Z,3.88
2022-11-16T22:22:40.426Z,3.84
2022-11-16T22:27:58.639Z,3.74
2022-11-16T22:32:43.229Z,3.66
2022-11-16T22:37:45.037Z,3.63
2022-11-16T22:42:46.441Z,3.56
2022-11-16T22:47:49.651Z,3.4
2022-11-16T22:52:49.470Z,3.28
2022-11-16T22:57:51.606Z,3.21
2022-11-16T23:12:56.731Z,2.96
2022-11-16T23:17:58.612Z,2.9
2022-11-16T23:23:00.265Z,2.77
2022-11-16T23:28:01.756Z,2.7
2022-11-16T23:33:03.497Z,2.62
2022-11-16T23:38:05.580Z,2.57
2022-11-16T23:43:07.852Z,2.51
2022-11-16T23:48:09.007Z,2.44
2022-11-16T23:53:10.833Z,2.39
2022-11-16T23:58:12.596Z,2.39
